Brandon, MN (56315)

10:20 AM CST on March 03, 2015 (GMT -0600)
Gardonville | Change Station
CLOSE
Current Station
Personal Weather Station
Location: Brandon, MN
Elevation: 1411 ft
Nearby Weather Stations
Active Advisory: Winter Weather Advisory Active Notice: Local Storm Report

Elev 1411 ft 45.96 °N, 95.60 °W | Updated 8 seconds ago

Snow
Snow
17.5 °F
Feels Like 4 °F
N
14.0
Wind Variable Wind from NW
Gusts 26.0 mph

Today
High -- | Low -- °F
--% Chance of Precip.
Yesterday
High -- | Low -- °F
Precip. -- in
6:57 AM 6:11 PM
Waxing Gibbous, 96% visible
Pressure 29.72 in
Visibility 5.0 miles
Clouds Scattered Clouds 1700 ft
Mostly Cloudy 2800 ft
Overcast 3600 ft
Windchill 4 °F
Dew Point 15 °F
Humidity 90%
Rainfall 0.00 in
Snow Depth Not available.
UV 1 out of 12
Pollen .40 out of 12
Air Quality Not available.
Flu Activity Not available.
SPECI KAXN 031613Z AUTO 34018G30KT 5SM HZ SCT017 BKN028 OVC036 M07/M11 A2972 RMK AO2 PK WND 33030/1605 SNE11 P0000 T10671106

More Conditions Fewer Conditions

Pressure 29.72 in
Visibility 5.0 miles
Clouds Scattered Clouds 1700 ft
Mostly Cloudy 2800 ft
Overcast 3600 ft
Windchill 4 °F
Dew Point 15 °F
Humidity 90%
Rainfall 0.00 in
Snow Depth Not available.
UV 1 out of 12
Pollen .40 out of 12
Air Quality Not available.
Flu Activity Not available.
SPECI KAXN 031613Z AUTO 34018G30KT 5SM HZ SCT017 BKN028 OVC036 M07/M11 A2972 RMK AO2 PK WND 33030/1605 SNE11 P0000 T10671106

More Conditions Fewer Conditions

10-Day Weather Forecast

Almanac

Astronomy

Mar. 03, 2015 Rise Set
Actual Time
Civil Twilight
Nautical Twilight
Astronomical Twilight
Moon
Length of Visible Light
Length of Day
Tomorrow will be .
, % of the Moon is Illuminated

Today's Extremes

State Highs State Lows

Community

WunderPhotos

Upload Photos

1,802,156 photos uploaded!

WunderBlogs® & News

Nearby

Air Quality

  Air Quality AQ Index Pollutant
Not available.

Snow Depth

Station Depth Elevation

Earthquake Activity

City Distance Mag. Time & Date
Minimum magnitude displayed is 2.5.

Coastal Water Temperatures

Place Temperature

Nearby Weather Stations

Winter Weather Advisory
Statement as of 10:10 AM CST on March 03, 2015

... Winter Weather Advisory remains in effect until 9 PM CST this
evening...

* timing... strong northwest winds will produce areas of blowing
snow through early evening.

* Winds/visibility... wind gusts around 35 mph will produce areas
of blowing snow and visibilities less than one mile in open
areas.

* Impacts... travel will be difficult with the blowing snow and
drifting snow.

Precautionary/preparedness actions...

A Winter Weather Advisory for snow and blowing snow means that
visibilities will be limited due to a combination of falling and
blowing snow. Use caution when traveling... especially in open
areas.